Time;durP1;ratioP1;P1;durP2;ratioP2;P2;SDS_P1;SDS_P2;PMS_P1;PMS_P2;Temp;Humidity;BMP_temperature;BMP_pressure;BME280_temperature;BME280_humidity;BME280_pressure;Samples;Min_cycle;Max_cycle;Signal;HPM_P1;HPM_P2
2021/05/16 00:00:55;;;;;;;11.17;2.77;;;10.80;99.90;;;;;;5056357;28;20174;-77
2021/05/16 00:03:21;;;;;;;5.60;2.37;;;10.80;99.90;;;;;;5056538;28;20611;-78
2021/05/16 00:05:47;;;;;;;6.67;2.33;;;10.90;99.90;;;;;;5053227;28;20452;-78
2021/05/16 00:08:14;;;;;;;5.80;4.13;;;10.80;99.90;;;;;;5057632;28;20186;-78
2021/05/16 00:10:40;;;;;;;10.00;2.40;;;10.80;99.90;;;;;;5063885;28;20664;-78
2021/05/16 00:13:07;;;;;;;6.33;2.53;;;10.70;99.90;;;;;;5053537;28;20421;-78
2021/05/16 00:15:33;;;;;;;5.33;2.53;;;10.70;99.90;;;;;;5053358;28;20579;-78
2021/05/16 00:17:58;;;;;;;4.60;2.00;;;10.70;99.90;;;;;;5060352;28;20489;-78
2021/05/16 00:20:27;;;;;;;6.13;2.43;;;10.60;99.90;;;;;;5069122;28;20428;-78
2021/05/16 00:22:53;;;;;;;13.67;3.03;;;10.70;99.90;;;;;;5052593;28;20178;-79
2021/05/16 00:25:21;;;;;;;7.80;2.50;;;10.60;99.90;;;;;;5063076;28;20818;-78
2021/05/16 00:27:47;;;;;;;12.93;3.57;;;10.70;99.90;;;;;;5052850;28;20785;-78
2021/05/16 00:30:15;;;;;;;7.00;2.37;;;10.70;99.90;;;;;;5061333;28;20942;-78
2021/05/16 00:32:41;;;;;;;8.40;2.57;;;10.70;99.90;;;;;;5050739;28;20424;-78
2021/05/16 00:35:10;;;;;;;8.57;2.00;;;10.70;99.90;;;;;;5052858;28;20460;-78
2021/05/16 00:37:35;;;;;;;9.20;2.47;;;10.70;99.90;;;;;;5046265;28;20431;-78
2021/05/16 00:40:01;;;;;;;8.97;2.57;;;10.70;99.90;;;;;;5066882;28;20423;-78
2021/05/16 00:42:27;;;;;;;5.67;2.20;;;10.60;99.90;;;;;;5058844;28;20167;-78
2021/05/16 00:45:04;;;;;;;9.43;2.60;;;10.60;99.90;;;;;;5051815;28;20484;-78
2021/05/16 00:47:30;;;;;;;11.60;2.67;;;10.60;99.90;;;;;;5051844;28;20249;-78
2021/05/16 00:49:55;;;;;;;6.57;2.60;;;10.50;99.90;;;;;;5063330;28;20520;-78
2021/05/16 00:52:23;;;;;;;5.20;1.80;;;10.50;99.90;;;;;;5062838;28;20706;-78
2021/05/16 00:54:50;;;;;;;11.10;3.00;;;10.50;99.90;;;;;;5061265;28;20811;-79
2021/05/16 00:57:16;;;;;;;7.83;2.70;;;10.40;99.90;;;;;;5064746;28;20759;-78
2021/05/16 00:59:42;;;;;;;8.97;2.83;;;10.50;99.90;;;;;;5063897;28;20850;-78
2021/05/16 01:02:07;;;;;;;6.70;2.40;;;10.40;99.90;;;;;;5044258;28;20465;-78
2021/05/16 01:04:33;;;;;;;12.13;3.37;;;10.50;99.90;;;;;;5051619;28;20182;-78
2021/05/16 01:06:58;;;;;;;14.67;2.90;;;10.60;99.90;;;;;;5053113;28;20178;-78
2021/05/16 01:09:24;;;;;;;7.93;2.53;;;10.60;99.90;;;;;;5041369;28;20221;-78
2021/05/16 01:11:51;;;;;;;9.00;2.63;;;10.50;99.90;;;;;;5037724;28;20185;-78
2021/05/16 01:15:04;;;;;;;8.43;2.40;;;10.50;99.90;;;;;;5061335;28;20276;-78
2021/05/16 01:17:03;;;;;;;5.50;2.87;;;10.40;99.90;;;;;;5044241;28;20464;-78
2021/05/16 01:19:32;;;;;;;10.43;2.30;;;10.40;99.90;;;;;;5071362;28;20448;-78
2021/05/16 01:21:59;;;;;;;8.73;3.13;;;10.20;99.90;;;;;;5064873;28;20504;-78
2021/05/16 01:24:27;;;;;;;10.87;3.47;;;10.20;99.90;;;;;;5060439;28;20433;-78
2021/05/16 01:26:53;;;;;;;12.20;3.90;;;10.30;99.90;;;;;;5066415;28;20432;-78
2021/05/16 01:29:20;;;;;;;4.90;2.20;;;10.20;99.90;;;;;;5053725;28;20513;-78
2021/05/16 01:31:46;;;;;;;10.97;2.80;;;10.20;99.90;;;;;;5050584;28;21015;-78
2021/05/16 01:34:11;;;;;;;17.53;3.40;;;10.20;99.90;;;;;;5055576;28;20456;-78
2021/05/16 01:36:38;;;;;;;13.50;3.27;;;10.20;99.90;;;;;;5051867;28;20274;-78
2021/05/16 01:39:10;;;;;;;10.63;4.00;;;10.10;99.90;;;;;;5051488;28;20177;-79
2021/05/16 01:41:37;;;;;;;12.10;3.00;;;10.20;99.90;;;;;;5055912;28;20433;-78
2021/05/16 01:44:03;;;;;;;5.17;2.40;;;10.20;99.90;;;;;;5056491;28;20460;-78
2021/05/16 01:46:29;;;;;;;14.33;3.47;;;10.20;99.90;;;;;;5060137;28;20494;-78
2021/05/16 01:48:55;;;;;;;12.03;3.03;;;10.20;99.90;;;;;;5037325;28;21018;-78
2021/05/16 01:51:21;;;;;;;8.23;3.47;;;10.30;99.90;;;;;;5054695;28;20517;-78
2021/05/16 01:53:50;;;;;;;13.07;3.90;;;10.30;99.90;;;;;;5067678;28;20240;-78
2021/05/16 01:56:25;;;;;;;11.00;2.60;;;10.30;99.90;;;;;;5047546;28;20449;-78
2021/05/16 01:58:51;;;;;;;13.40;3.00;;;10.40;99.90;;;;;;5058089;28;20486;-78
2021/05/16 02:01:17;;;;;;;4.40;2.27;;;10.30;99.90;;;;;;5054867;28;20434;-78
2021/05/16 02:03:44;;;;;;;4.93;2.00;;;10.30;99.90;;;;;;5060218;28;20432;-78
2021/05/16 02:06:11;;;;;;;12.00;3.20;;;10.20;99.90;;;;;;5056539;28;20454;-78
2021/05/16 02:08:39;;;;;;;6.30;2.90;;;10.20;99.90;;;;;;5057427;28;20466;-78
2021/05/16 02:11:04;;;;;;;12.00;2.60;;;10.00;99.90;;;;;;5057312;28;20464;-78
2021/05/16 02:13:31;;;;;;;7.23;2.90;;;10.00;99.90;;;;;;5040371;28;20490;-78
2021/05/16 02:15:57;;;;;;;11.13;4.47;;;9.90;99.90;;;;;;5041132;28;20264;-78
2021/05/16 02:18:22;;;;;;;12.43;2.80;;;9.80;99.90;;;;;;5075363;28;20768;-78
2021/05/16 02:20:49;;;;;;;12.80;3.80;;;9.60;99.90;;;;;;5073213;28;20584;-78
2021/05/16 02:23:14;;;;;;;19.03;3.03;;;9.60;99.90;;;;;;5062954;28;20286;-78
2021/05/16 02:25:40;;;;;;;5.50;2.50;;;9.60;99.90;;;;;;5055261;28;20463;-78
2021/05/16 02:28:06;;;;;;;12.83;3.37;;;9.60;99.90;;;;;;5055298;28;20175;-78
2021/05/16 02:30:32;;;;;;;20.53;3.60;;;9.50;99.90;;;;;;5054684;28;20175;-78
2021/05/16 02:32:57;;;;;;;10.43;3.07;;;9.40;99.90;;;;;;5037923;28;20471;-78
2021/05/16 02:35:23;;;;;;;9.47;3.57;;;9.40;99.90;;;;;;5049374;28;20198;-77
2021/05/16 02:37:49;;;;;;;15.07;3.47;;;9.40;99.90;;;;;;5063120;28;20228;-77
2021/05/16 02:40:15;;;;;;;10.87;4.37;;;9.40;99.90;;;;;;5036815;28;20563;-77
2021/05/16 02:42:41;;;;;;;4.80;2.47;;;9.40;99.90;;;;;;5054594;28;20655;-77
2021/05/16 02:45:07;;;;;;;11.37;3.20;;;9.30;99.90;;;;;;5048472;28;20445;-77
2021/05/16 02:47:33;;;;;;;5.17;2.80;;;9.30;99.90;;;;;;5059311;28;20257;-77
2021/05/16 02:49:59;;;;;;;10.17;3.50;;;9.40;99.90;;;;;;5070381;28;20464;-77
2021/05/16 02:52:24;;;;;;;9.77;2.63;;;9.50;99.90;;;;;;5043698;28;20178;-77
2021/05/16 02:54:50;;;;;;;6.00;2.70;;;9.50;99.90;;;;;;5054232;28;20207;-77
2021/05/16 02:57:15;;;;;;;9.03;3.07;;;9.50;99.90;;;;;;5051098;28;20174;-77
2021/05/16 02:59:41;;;;;;;5.13;2.50;;;9.60;99.90;;;;;;5055168;28;20195;-77
2021/05/16 03:02:07;;;;;;;6.20;2.53;;;9.60;99.90;;;;;;5056132;28;20163;-77
2021/05/16 03:04:33;;;;;;;12.10;4.93;;;9.60;99.90;;;;;;5038027;28;20183;-77
2021/05/16 03:06:58;;;;;;;6.10;2.60;;;9.50;99.90;;;;;;5051810;28;20463;-77
2021/05/16 03:09:24;;;;;;;13.40;3.17;;;9.50;99.90;;;;;;5073392;28;20181;-78
2021/05/16 03:11:50;;;;;;;6.50;2.83;;;9.30;99.90;;;;;;5062026;28;20171;-77
2021/05/16 03:14:16;;;;;;;10.20;3.23;;;9.20;99.90;;;;;;5052657;28;20455;-78
2021/05/16 03:16:41;;;;;;;5.07;3.17;;;9.30;99.90;;;;;;5054664;28;20606;-78
2021/05/16 03:19:07;;;;;;;8.93;2.87;;;9.20;99.90;;;;;;5055309;28;20490;-77
2021/05/16 03:21:33;;;;;;;10.50;3.43;;;9.20;99.90;;;;;;5054056;28;20303;-77
2021/05/16 03:23:58;;;;;;;7.10;2.90;;;9.20;99.90;;;;;;5062731;28;20177;-78
2021/05/16 03:26:24;;;;;;;6.90;3.30;;;9.10;99.90;;;;;;5052469;28;20801;-78
2021/05/16 03:28:50;;;;;;;11.73;3.90;;;9.10;99.90;;;;;;5065239;28;20185;-77
2021/05/16 03:31:16;;;;;;;7.03;2.87;;;9.10;99.90;;;;;;5072176;28;20190;-77
2021/05/16 03:33:41;;;;;;;6.77;2.70;;;9.10;99.90;;;;;;5068389;28;22256;-78
2021/05/16 03:36:07;;;;;;;5.40;3.20;;;9.10;99.90;;;;;;5055463;28;20540;-77
2021/05/16 03:38:33;;;;;;;7.43;3.07;;;9.00;99.90;;;;;;5070394;28;20589;-77
2021/05/16 03:40:58;;;;;;;11.90;3.20;;;9.00;99.90;;;;;;5068565;28;20174;-78
2021/05/16 03:43:24;;;;;;;5.80;3.40;;;9.00;99.90;;;;;;5072808;28;20182;-78
2021/05/16 03:45:50;;;;;;;8.37;3.47;;;8.90;99.90;;;;;;5063498;28;20253;-77
2021/05/16 03:48:16;;;;;;;14.77;3.40;;;8.80;99.90;;;;;;5044341;28;20178;-77
2021/05/16 03:50:41;;;;;;;9.47;3.47;;;8.80;99.90;;;;;;5054650;28;20175;-77
2021/05/16 03:53:07;;;;;;;16.67;4.10;;;9.00;99.90;;;;;;5060683;28;20433;-77
2021/05/16 03:55:34;;;;;;;11.57;4.13;;;8.90;99.90;;;;;;5054379;28;20563;-78
2021/05/16 03:58:00;;;;;;;6.60;2.80;;;8.90;99.90;;;;;;5037896;28;20304;-78
2021/05/16 04:00:26;;;;;;;7.60;3.60;;;8.80;99.90;;;;;;5056356;28;20429;-78
2021/05/16 04:02:51;;;;;;;8.60;3.97;;;8.80;99.90;;;;;;5071999;28;20937;-78
2021/05/16 04:05:17;;;;;;;13.23;3.30;;;8.90;99.90;;;;;;5061807;28;20784;-78
2021/05/16 04:07:43;;;;;;;7.03;3.00;;;8.90;99.90;;;;;;5041792;28;20237;-78
2021/05/16 04:10:10;;;;;;;9.07;3.30;;;9.00;99.90;;;;;;5042309;28;20213;-78
2021/05/16 04:12:35;;;;;;;13.23;4.00;;;9.00;99.90;;;;;;5075617;28;20427;-77
2021/05/16 04:15:01;;;;;;;9.00;3.40;;;9.00;99.90;;;;;;5040644;28;20461;-77
2021/05/16 04:17:26;;;;;;;10.90;2.77;;;9.00;99.90;;;;;;5038233;28;20229;-77
2021/05/16 04:19:52;;;;;;;7.27;3.20;;;9.00;99.90;;;;;;5038517;28;20262;-77
2021/05/16 04:22:17;;;;;;;11.23;2.80;;;9.10;99.90;;;;;;5058631;28;20601;-77
2021/05/16 04:24:43;;;;;;;8.30;3.40;;;9.20;99.90;;;;;;5054350;28;20183;-77
2021/05/16 04:27:09;;;;;;;4.80;3.03;;;9.30;99.90;;;;;;5052659;28;20186;-77
2021/05/16 04:29:34;;;;;;;9.47;3.80;;;9.40;99.90;;;;;;5054154;28;20175;-77
2021/05/16 04:32:00;;;;;;;3.87;2.37;;;9.50;99.90;;;;;;5060248;28;20183;-77
2021/05/16 04:34:25;;;;;;;6.80;2.70;;;9.50;99.90;;;;;;5073524;28;20251;-77
2021/05/16 04:36:51;;;;;;;7.43;3.00;;;9.60;99.90;;;;;;5061371;28;20190;-77
2021/05/16 04:39:16;;;;;;;6.47;3.43;;;9.70;99.90;;;;;;5060948;28;20190;-76
2021/05/16 04:41:42;;;;;;;8.93;2.97;;;9.80;99.90;;;;;;5068288;28;20179;-76
2021/05/16 04:44:08;;;;;;;6.07;2.87;;;9.90;99.90;;;;;;5056056;28;20185;-77
2021/05/16 04:46:34;;;;;;;12.70;3.60;;;10.00;99.90;;;;;;5072557;28;20226;-77
2021/05/16 04:49:00;;;;;;;5.90;2.77;;;10.00;99.90;;;;;;5072342;28;20190;-77
2021/05/16 04:51:25;;;;;;;8.20;3.00;;;10.10;99.90;;;;;;5053360;28;20514;-78
2021/05/16 04:53:52;;;;;;;7.93;3.00;;;10.10;99.90;;;;;;5060398;28;20198;-78
2021/05/16 04:56:18;;;;;;;7.40;2.93;;;10.30;99.90;;;;;;5072481;28;20190;-78
2021/05/16 04:58:43;;;;;;;8.63;3.50;;;10.20;99.90;;;;;;5072345;28;20424;-77
2021/05/16 05:01:09;;;;;;;11.13;2.87;;;10.30;99.90;;;;;;5049304;28;20174;-77
2021/05/16 05:03:35;;;;;;;6.10;3.40;;;10.40;99.90;;;;;;5070956;28;20547;-78
2021/05/16 05:06:00;;;;;;;8.40;3.07;;;10.40;99.90;;;;;;5053834;28;20220;-78
2021/05/16 05:08:26;;;;;;;6.13;2.47;;;10.40;99.90;;;;;;5056147;28;20184;-78
2021/05/16 05:10:52;;;;;;;7.93;3.80;;;10.50;99.90;;;;;;5059315;28;20539;-78
2021/05/16 05:13:18;;;;;;;3.97;3.30;;;10.50;99.90;;;;;;5036194;28;20229;-78
2021/05/16 05:15:43;;;;;;;6.83;2.90;;;10.60;99.90;;;;;;5034257;28;20442;-77
2021/05/16 05:18:09;;;;;;;5.87;2.90;;;10.70;99.90;;;;;;5058108;28;20456;-77
2021/05/16 05:20:35;;;;;;;7.97;3.13;;;10.70;99.90;;;;;;5057586;28;20209;-77
2021/05/16 05:23:00;;;;;;;4.73;2.20;;;10.80;99.90;;;;;;5060618;28;20174;-77
2021/05/16 05:25:27;;;;;;;6.40;3.10;;;10.90;99.90;;;;;;5070809;28;20236;-77
2021/05/16 05:27:56;;;;;;;12.17;3.17;;;10.90;99.90;;;;;;5070224;28;20435;-77
2021/05/16 05:30:23;;;;;;;4.90;2.30;;;11.00;99.90;;;;;;5066428;28;20545;-77
2021/05/16 05:32:49;;;;;;;10.47;3.30;;;11.00;99.90;;;;;;5039516;28;20486;-77
2021/05/16 05:35:16;;;;;;;8.10;3.40;;;11.00;99.90;;;;;;5068508;28;20480;-76
2021/05/16 05:37:42;;;;;;;7.13;3.40;;;11.00;99.90;;;;;;5060530;28;20877;-76
2021/05/16 05:40:08;;;;;;;6.37;3.00;;;11.00;99.90;;;;;;5068958;28;20953;-76
2021/05/16 05:42:34;;;;;;;5.70;3.07;;;11.00;99.90;;;;;;5062360;28;20949;-77
2021/05/16 05:45:00;;;;;;;8.00;3.30;;;11.00;99.90;;;;;;5035955;28;20573;-76
2021/05/16 05:47:25;;;;;;;12.53;3.73;;;11.10;99.90;;;;;;5050165;28;20182;-78
2021/05/16 05:49:53;;;;;;;5.10;2.93;;;11.10;99.90;;;;;;5055401;28;20226;-78
2021/05/16 05:52:19;;;;;;;15.73;3.00;;;11.20;99.90;;;;;;5067328;28;20255;-77
2021/05/16 05:54:44;;;;;;;12.00;2.93;;;11.20;99.90;;;;;;5072148;28;20824;-77
2021/05/16 05:57:10;;;;;;;9.50;3.43;;;11.30;99.90;;;;;;5069741;28;20431;-78
2021/05/16 05:59:36;;;;;;;10.73;2.67;;;11.30;99.90;;;;;;5067830;28;20185;-78
2021/05/16 06:02:03;;;;;;;10.00;3.20;;;11.30;99.90;;;;;;5071086;28;20174;-77
2021/05/16 06:04:29;;;;;;;5.93;3.70;;;11.40;99.90;;;;;;5076982;28;20174;-77
2021/05/16 06:06:55;;;;;;;10.13;3.80;;;11.50;99.90;;;;;;5043132;28;20479;-77
2021/05/16 06:09:20;;;;;;;3.77;2.83;;;11.40;99.90;;;;;;5056601;28;20512;-77
2021/05/16 06:11:46;;;;;;;7.40;3.30;;;11.20;99.90;;;;;;5075452;28;20420;-77
2021/05/16 06:14:11;;;;;;;7.00;3.07;;;11.20;99.90;;;;;;5044073;28;20211;-75
2021/05/16 06:16:37;;;;;;;11.20;3.67;;;11.10;99.90;;;;;;5065444;28;20194;-76
2021/05/16 06:19:03;;;;;;;7.83;3.33;;;11.00;99.90;;;;;;5057252;28;20201;-76
2021/05/16 06:21:28;;;;;;;4.53;3.07;;;11.00;99.90;;;;;;5059364;28;20654;-76
2021/05/16 06:24:06;;;;;;;17.53;4.90;;;10.90;99.90;;;;;;5068925;28;20432;-77
2021/05/16 06:26:36;;;;;;;7.57;3.90;;;10.90;99.90;;;;;;5055074;28;20197;-75
2021/05/16 06:29:02;;;;;;;8.10;3.30;;;10.70;99.90;;;;;;5069689;28;20932;-76
2021/05/16 06:31:27;;;;;;;9.03;3.93;;;10.50;99.90;;;;;;5065627;28;20432;-77
2021/05/16 06:33:53;;;;;;;9.07;4.30;;;10.60;99.90;;;;;;5072274;28;20460;-78
2021/05/16 06:36:19;;;;;;;7.00;3.50;;;10.50;99.90;;;;;;5074743;28;20193;-78
2021/05/16 06:38:44;;;;;;;6.60;3.63;;;10.60;99.90;;;;;;5070967;28;20634;-78
2021/05/16 06:41:10;;;;;;;7.60;3.77;;;10.60;99.90;;;;;;5062849;28;20168;-77
2021/05/16 06:43:36;;;;;;;8.67;4.30;;;10.50;99.90;;;;;;5037164;28;20174;-78
2021/05/16 06:46:01;;;;;;;9.77;4.23;;;10.50;99.90;;;;;;5063372;28;20540;-77
2021/05/16 06:48:27;;;;;;;7.33;3.50;;;10.60;99.90;;;;;;5051517;28;20272;-77
2021/05/16 06:50:53;;;;;;;7.73;3.20;;;10.60;99.90;;;;;;5073931;28;20184;-77
2021/05/16 06:53:19;;;;;;;9.57;3.80;;;10.70;99.90;;;;;;5038663;28;20183;-77
2021/05/16 06:55:45;;;;;;;12.30;4.40;;;10.90;99.90;;;;;;5064657;28;20952;-77
2021/05/16 06:58:10;;;;;;;7.00;3.00;;;11.10;99.90;;;;;;5055900;28;20185;-78
2021/05/16 07:00:36;;;;;;;7.80;3.10;;;11.10;99.90;;;;;;5073663;28;20181;-77
2021/05/16 07:03:01;;;;;;;10.10;2.87;;;11.20;99.90;;;;;;5071934;28;20233;-78
2021/05/16 07:05:27;;;;;;;8.40;4.83;;;11.30;99.90;;;;;;5074896;28;20666;-78
2021/05/16 07:07:52;;;;;;;10.60;3.43;;;11.40;99.90;;;;;;5056814;28;20643;-77
2021/05/16 07:10:18;;;;;;;9.47;4.23;;;11.50;99.90;;;;;;5058894;28;20178;-78
2021/05/16 07:12:43;;;;;;;8.13;3.07;;;11.60;99.90;;;;;;5056442;28;20229;-78
2021/05/16 07:15:13;;;;;;;9.03;3.87;;;11.70;99.90;;;;;;5041585;28;20231;-79
2021/05/16 07:17:38;;;;;;;10.57;3.13;;;11.80;99.90;;;;;;5068345;28;20193;-78
2021/05/16 07:20:05;;;;;;;8.53;2.90;;;11.80;99.90;;;;;;5044638;28;20432;-78
2021/05/16 07:22:30;;;;;;;12.03;3.30;;;11.80;99.90;;;;;;5059617;28;20174;-79
2021/05/16 07:24:56;;;;;;;5.27;2.70;;;11.60;99.90;;;;;;5053457;28;20451;-78
2021/05/16 07:27:22;;;;;;;8.63;3.17;;;11.60;99.90;;;;;;5062005;28;20209;-78
2021/05/16 07:29:50;;;;;;;7.60;2.70;;;11.60;99.90;;;;;;5052442;28;20560;-79
2021/05/16 07:32:16;;;;;;;6.00;2.33;;;11.80;99.90;;;;;;5056515;28;20178;-78
2021/05/16 07:34:41;;;;;;;5.63;2.17;;;11.90;99.90;;;;;;5049820;28;20817;-78
2021/05/16 07:37:07;;;;;;;5.20;2.20;;;11.90;99.90;;;;;;5075299;28;20181;-77
2021/05/16 07:39:33;;;;;;;5.37;2.13;;;12.00;99.90;;;;;;5066602;28;20189;-78
2021/05/16 07:41:59;;;;;;;10.03;3.20;;;12.00;99.90;;;;;;5038573;28;20413;-78
2021/05/16 07:44:25;;;;;;;7.07;2.60;;;12.20;99.90;;;;;;5042444;28;20479;-78
2021/05/16 07:46:50;;;;;;;4.63;2.27;;;12.30;99.90;;;;;;5071715;28;20258;-77
2021/05/16 07:49:16;;;;;;;3.00;1.90;;;12.40;99.90;;;;;;5038625;28;20193;-78
2021/05/16 07:51:41;;;;;;;9.63;2.20;;;12.50;99.90;;;;;;5043444;28;20179;-78
2021/05/16 07:54:07;;;;;;;3.20;2.07;;;12.50;99.90;;;;;;5054883;28;20288;-77
2021/05/16 07:56:33;;;;;;;4.93;1.90;;;12.60;99.90;;;;;;5067672;28;20217;-77
2021/05/16 07:58:59;;;;;;;6.57;1.97;;;12.70;99.90;;;;;;5066886;28;20524;-78
2021/05/16 08:01:25;;;;;;;3.37;1.90;;;12.80;99.90;;;;;;5064437;28;20178;-77
2021/05/16 08:03:50;;;;;;;4.07;2.00;;;12.90;99.90;;;;;;5059972;28;20867;-77
2021/05/16 08:06:16;;;;;;;3.60;1.67;;;12.80;99.90;;;;;;5038671;28;20704;-77
2021/05/16 08:08:42;;;;;;;7.87;2.57;;;12.80;99.90;;;;;;5066302;28;20170;-77
2021/05/16 08:11:07;;;;;;;11.00;2.10;;;12.90;99.90;;;;;;5061864;28;20441;-77
2021/05/16 08:13:33;;;;;;;5.20;1.87;;;12.80;99.90;;;;;;5041377;28;20194;-78
2021/05/16 08:15:58;;;;;;;3.83;1.90;;;13.20;99.90;;;;;;5066296;28;20228;-78
2021/05/16 08:18:24;;;;;;;5.60;2.07;;;13.30;99.90;;;;;;5048246;28;20220;-78
2021/05/16 08:20:49;;;;;;;3.50;1.50;;;13.60;99.90;;;;;;5038176;28;20178;-77
2021/05/16 08:23:15;;;;;;;2.87;1.50;;;13.70;99.90;;;;;;5055493;28;20167;-77
2021/05/16 08:25:41;;;;;;;3.20;1.37;;;13.70;99.90;;;;;;5061831;28;20705;-76
2021/05/16 08:28:08;;;;;;;3.03;1.83;;;13.50;99.90;;;;;;5063240;28;20249;-78
2021/05/16 08:30:34;;;;;;;3.07;1.60;;;13.50;99.90;;;;;;5052639;28;20509;-78
2021/05/16 08:33:00;;;;;;;6.30;1.70;;;13.70;99.90;;;;;;5064746;28;20482;-78
2021/05/16 08:35:25;;;;;;;3.10;1.47;;;14.30;99.90;;;;;;5067226;28;20206;-79
2021/05/16 08:37:51;;;;;;;7.70;1.70;;;15.10;99.90;;;;;;5050361;28;20197;-78
2021/05/16 08:40:17;;;;;;;5.57;1.70;;;15.30;99.90;;;;;;5052237;28;20551;-78
2021/05/16 08:42:43;;;;;;;4.20;2.10;;;15.40;99.90;;;;;;5059703;28;20429;-79
2021/05/16 08:45:12;;;;;;;4.73;1.90;;;16.00;99.90;;;;;;5059255;28;20700;-78
2021/05/16 08:47:40;;;;;;;13.60;8.57;;;16.20;99.90;;;;;;5046932;28;20437;-76
2021/05/16 08:50:08;;;;;;;8.43;2.50;;;16.30;99.90;;;;;;5046538;28;20432;-78
2021/05/16 08:52:34;;;;;;;9.60;2.53;;;16.70;99.90;;;;;;5037077;28;20781;-77
2021/05/16 08:54:59;;;;;;;4.87;2.00;;;17.40;99.90;;;;;;5054338;28;20552;-78
2021/05/16 08:57:25;;;;;;;4.80;2.80;;;17.70;99.90;;;;;;5055882;28;20296;-78
2021/05/16 09:00:17;;;;;;;5.00;2.10;;;18.10;99.90;;;;;;5069464;28;20170;-79
2021/05/16 09:03:04;;;;;;;5.73;2.20;;;18.10;99.90;;;;;;5060464;28;20171;-80
2021/05/16 09:05:40;;;;;;;5.70;2.37;;;17.90;99.90;;;;;;5041763;28;20448;-78
2021/05/16 09:08:16;;;;;;;7.73;2.83;;;18.20;99.90;;;;;;5068038;28;20424;-79
2021/05/16 09:10:50;;;;;;;11.97;2.90;;;17.80;99.90;;;;;;5060488;28;20478;-78
2021/05/16 09:13:21;;;;;;;9.93;2.60;;;17.60;99.90;;;;;;5053342;28;20429;-78
2021/05/16 09:16:15;;;;;;;6.50;2.90;;;17.90;99.90;;;;;;5055280;28;20479;-78
2021/05/16 09:18:40;;;;;;;9.13;2.97;;;17.90;99.90;;;;;;5055637;28;20926;-79
2021/05/16 09:21:34;;;;;;;8.93;2.60;;;17.90;99.90;;;;;;5039392;28;20455;-79
2021/05/16 09:24:00;;;;;;;5.37;2.40;;;17.90;99.90;;;;;;5066454;28;20585;-79
2021/05/16 09:26:32;;;;;;;5.03;2.00;;;18.00;99.90;;;;;;5068041;28;20448;-80
2021/05/16 09:29:28;;;;;;;8.10;3.50;;;17.20;99.90;;;;;;5057964;28;20244;-79
2021/05/16 09:31:56;;;;;;;9.20;2.67;;;16.70;99.90;;;;;;5059808;28;20436;-78
2021/05/16 09:34:22;;;;;;;8.47;4.03;;;16.40;99.90;;;;;;5059452;28;20486;-78
2021/05/16 09:36:50;;;;;;;15.03;6.60;;;16.50;99.90;;;;;;5051407;28;20499;-77
2021/05/16 09:39:24;;;;;;;9.50;4.23;;;16.50;99.90;;;;;;5060102;28;20428;-78
2021/05/16 09:42:14;;;;;;;8.97;4.73;;;16.20;99.90;;;;;;5034485;28;20424;-78
2021/05/16 09:44:46;;;;;;;7.43;2.47;;;16.10;99.90;;;;;;5058623;28;20420;-78
2021/05/16 09:47:12;;;;;;;6.97;2.60;;;16.00;99.90;;;;;;5060562;28;20421;-78
2021/05/16 09:49:38;;;;;;;3.33;1.83;;;17.00;99.90;;;;;;5052419;28;20443;-79
2021/05/16 09:52:12;;;;;;;5.00;1.83;;;17.80;99.90;;;;;;5040166;28;20183;-78
2021/05/16 09:55:07;;;;;;;4.43;1.90;;;18.60;99.90;;;;;;5068699;28;20465;-77
2021/05/16 09:57:38;;;;;;;2.80;2.30;;;18.60;99.90;;;;;;5064786;28;20421;-78
2021/05/16 10:00:09;;;;;;;7.33;2.20;;;19.40;99.90;;;;;;5050590;28;20440;-78
2021/05/16 10:02:35;;;;;;;4.60;1.87;;;19.80;99.90;;;;;;5035022;28;20436;-78
2021/05/16 10:05:02;;;;;;;5.20;2.13;;;20.40;99.90;;;;;;5068774;28;20447;-78
2021/05/16 10:07:29;;;;;;;7.50;2.53;;;21.00;99.90;;;;;;5070460;28;20439;-78
2021/05/16 10:09:56;;;;;;;4.07;2.27;;;21.60;99.90;;;;;;5043678;28;20409;-78
2021/05/16 10:12:23;;;;;;;8.27;2.20;;;21.90;99.90;;;;;;5057523;28;20475;-78
2021/05/16 10:15:07;;;;;;;2.70;1.77;;;21.80;98.40;;;;;;5055499;28;20503;-80
2021/05/16 10:17:36;;;;;;;3.40;1.97;;;21.90;97.20;;;;;;5071189;28;20413;-79
2021/05/16 10:20:09;;;;;;;3.90;1.87;;;21.20;91.00;;;;;;5065239;28;20769;-79
2021/05/16 10:22:38;;;;;;;2.87;1.90;;;21.10;90.40;;;;;;5072968;28;20510;-79
2021/05/16 10:25:05;;;;;;;3.07;1.80;;;21.70;98.10;;;;;;5055380;28;20437;-79
2021/05/16 10:27:40;;;;;;;3.20;1.80;;;22.30;96.60;;;;;;5059738;28;20419;-79
2021/05/16 10:30:08;;;;;;;7.10;2.10;;;22.80;90.10;;;;;;5055164;28;20432;-80
2021/05/16 10:32:47;;;;;;;7.97;2.43;;;22.50;84.20;;;;;;5078188;28;20423;-79
2021/05/16 10:35:14;;;;;;;4.97;2.10;;;22.20;80.80;;;;;;5060920;28;22473;-80
2021/05/16 10:37:40;;;;;;;3.23;1.73;;;21.90;77.80;;;;;;5057634;28;20425;-80
2021/05/16 10:40:10;;;;;;;3.33;1.40;;;22.00;83.50;;;;;;5050619;28;20490;-79
2021/05/16 10:42:41;;;;;;;4.77;1.90;;;22.00;79.20;;;;;;5057448;28;20486;-78
2021/05/16 10:45:10;;;;;;;2.97;1.80;;;21.40;74.30;;;;;;5057576;28;20441;-80
2021/05/16 10:47:41;;;;;;;4.70;1.80;;;21.30;76.20;;;;;;5059968;28;20428;-79
2021/05/16 10:50:11;;;;;;;5.13;1.60;;;22.00;92.30;;;;;;5052769;28;20538;-81
2021/05/16 10:52:37;;;;;;;6.00;2.97;;;22.20;85.80;;;;;;5063223;28;20964;-79
2021/05/16 10:55:07;;;;;;;5.47;2.90;;;22.30;84.70;;;;;;5070935;28;20483;-79
2021/05/16 10:57:40;;;;;;;3.93;2.17;;;22.10;82.20;;;;;;5089511;28;20420;-81
2021/05/16 11:00:26;;;;;;;4.93;1.93;;;21.40;80.70;;;;;;5092194;28;20902;-81
2021/05/16 11:03:12;;;;;;;4.93;1.90;;;21.50;90.00;;;;;;5052847;28;20435;-79
2021/05/16 11:05:41;;;;;;;5.00;2.03;;;21.50;88.50;;;;;;5077282;28;20436;-81
2021/05/16 11:08:08;;;;;;;5.80;2.47;;;21.10;82.50;;;;;;5077050;28;20420;-80
2021/05/16 11:10:33;;;;;;;2.83;1.70;;;21.30;90.60;;;;;;5073771;28;20484;-82
2021/05/16 11:13:12;;;;;;;3.07;1.87;;;21.50;88.90;;;;;;5072797;28;20443;-80
2021/05/16 11:15:46;;;;;;;3.40;1.80;;;22.00;90.40;;;;;;5078470;28;20224;-80
2021/05/16 11:18:15;;;;;;;4.90;1.80;;;22.60;89.60;;;;;;5077334;28;20457;-80
2021/05/16 11:20:42;;;;;;;3.80;1.90;;;22.40;85.50;;;;;;5067623;28;20433;-80
2021/05/16 11:23:07;;;;;;;3.23;2.00;;;22.40;84.90;;;;;;5074812;28;20417;-82
2021/05/16 11:25:33;;;;;;;7.37;1.93;;;21.30;83.00;;;;;;5098657;28;20412;-79
2021/05/16 11:27:59;;;;;;;6.60;2.20;;;20.80;85.60;;;;;;5079702;28;20542;-80
2021/05/16 11:30:27;;;;;;;3.20;2.07;;;20.50;88.70;;;;;;5070672;28;20227;-80
2021/05/16 11:32:53;;;;;;;8.50;7.47;;;20.50;88.50;;;;;;5078078;28;20241;-80
2021/05/16 11:35:21;;;;;;;5.40;2.40;;;20.60;88.40;;;;;;5060115;28;20502;-80
2021/05/16 11:37:55;;;;;;;3.63;1.97;;;21.00;84.40;;;;;;5079689;28;20252;-78
2021/05/16 11:40:29;;;;;;;8.87;2.60;;;21.80;86.40;;;;;;5076281;28;20418;-79
2021/05/16 11:43:03;;;;;;;4.23;1.93;;;21.60;73.30;;;;;;5096126;28;20732;-81
2021/05/16 11:45:31;;;;;;;6.67;2.20;;;21.40;76.20;;;;;;5072242;28;20467;-81
2021/05/16 11:47:57;;;;;;;6.93;2.50;;;21.50;81.50;;;;;;5072166;28;20508;-81
2021/05/16 11:50:41;;;;;;;4.00;2.27;;;21.50;77.50;;;;;;5073830;28;20499;-80
2021/05/16 11:53:07;;;;;;;5.00;1.67;;;20.90;75.70;;;;;;5073008;28;20178;-81
2021/05/16 11:55:33;;;;;;;5.20;2.10;;;20.60;79.40;;;;;;5075598;28;20490;-80
2021/05/16 11:57:59;;;;;;;6.77;2.17;;;19.60;85.20;;;;;;5060484;28;20190;-80
2021/05/16 12:00:29;;;;;;;1.90;1.53;;;19.20;91.70;;;;;;5069579;28;20800;-80
2021/05/16 12:03:15;;;;;;;3.30;1.50;;;19.50;91.80;;;;;;5092053;28;20420;-81
2021/05/16 12:05:43;;;;;;;5.47;1.13;;;20.10;91.20;;;;;;5065610;28;20514;-79
2021/05/16 12:08:18;;;;;;;2.37;1.10;;;20.10;90.40;;;;;;5037038;28;21036;-80
2021/05/16 12:10:44;;;;;;;2.80;1.20;;;20.30;81.50;;;;;;5053626;28;20381;-80
2021/05/16 12:13:21;;;;;;;2.17;0.70;;;20.60;82.70;;;;;;5062936;28;20436;-78
2021/05/16 12:15:47;;;;;;;2.87;1.20;;;21.10;78.80;;;;;;5077547;28;20442;-79
2021/05/16 12:18:23;;;;;;;2.30;1.03;;;22.00;82.50;;;;;;5093254;28;20400;-79
2021/05/16 12:21:02;;;;;;;1.63;0.70;;;21.70;70.80;;;;;;5091741;28;20169;-78
2021/05/16 12:23:28;;;;;;;0.90;0.70;;;21.90;71.10;;;;;;5093630;28;20404;-80
2021/05/16 12:25:54;;;;;;;2.50;0.90;;;22.00;68.60;;;;;;5068036;28;20436;-80
2021/05/16 12:28:20;;;;;;;3.83;1.20;;;21.80;71.70;;;;;;5073308;28;20167;-78
2021/05/16 12:30:46;;;;;;;2.93;1.53;;;21.40;65.50;;;;;;5071734;28;20427;-81
2021/05/16 12:33:14;;;;;;;2.20;1.30;;;20.70;66.20;;;;;;5064529;28;20420;-78
2021/05/16 12:35:40;;;;;;;2.00;1.00;;;20.30;71.40;;;;;;5073861;28;20214;-79
2021/05/16 12:38:16;;;;;;;2.40;1.13;;;20.60;76.50;;;;;;5074628;28;20411;-79
2021/05/16 12:40:42;;;;;;;8.73;4.23;;;20.30;77.20;;;;;;5054731;28;20174;-79
2021/05/16 12:43:10;;;;;;;4.70;3.20;;;19.90;78.20;;;;;;5069120;28;20503;-81
2021/05/16 12:45:40;;;;;;;4.00;1.47;;;20.00;84.00;;;;;;5062602;28;20856;-81
2021/05/16 12:48:11;;;;;;;2.90;1.40;;;19.70;83.10;;;;;;5077093;28;20428;-80